createdAt,value
2022-10-10T00:01:29.582Z,16.40
2022-10-10T00:03:57.526Z,16.60
2022-10-10T00:06:30.377Z,16.50
2022-10-10T00:09:00.574Z,16.50
2022-10-10T00:11:28.623Z,16.30
2022-10-10T00:13:57.867Z,16.10
2022-10-10T00:16:26.278Z,16.00
2022-10-10T00:18:54.558Z,15.80
2022-10-10T00:21:22.519Z,15.80
2022-10-10T00:23:50.461Z,15.80
2022-10-10T00:26:19.512Z,15.70
2022-10-10T00:28:47.639Z,15.70
2022-10-10T00:31:17.546Z,15.70
2022-10-10T00:33:46.145Z,15.70
2022-10-10T00:36:14.166Z,16.00
2022-10-10T00:38:42.214Z,16.00
2022-10-10T00:41:10.160Z,15.70
2022-10-10T00:43:38.240Z,15.40
2022-10-10T00:46:06.379Z,15.10
2022-10-10T00:48:38.286Z,15.00
2022-10-10T00:51:10.270Z,15.00
2022-10-10T00:53:42.220Z,15.00
2022-10-10T00:56:12.159Z,14.80
2022-10-10T00:58:47.824Z,14.40
2022-10-10T01:01:15.927Z,14.50
2022-10-10T01:03:45.221Z,14.90
2022-10-10T01:06:13.311Z,15.20
2022-10-10T01:08:41.821Z,15.30
2022-10-10T01:11:25.207Z,15.10
2022-10-10T01:14:04.045Z,14.80
2022-10-10T01:16:40.235Z,14.90
2022-10-10T01:19:50.134Z,14.70
2022-10-10T01:22:30.275Z,14.50
2022-10-10T01:25:08.378Z,14.40
2022-10-10T01:27:46.773Z,14.50
2022-10-10T01:30:18.723Z,14.30
2022-10-10T01:32:53.099Z,14.70
2022-10-10T01:35:34.209Z,14.90
2022-10-10T01:38:11.530Z,14.80
2022-10-10T01:40:46.468Z,14.70
2022-10-10T01:43:14.422Z,14.40
2022-10-10T01:45:47.096Z,14.40
2022-10-10T01:48:18.101Z,14.40
2022-10-10T01:51:08.067Z,14.50
2022-10-10T01:53:42.858Z,14.60
2022-10-10T01:56:19.616Z,14.60
2022-10-10T01:59:05.560Z,14.90
2022-10-10T02:01:42.357Z,15.10
2022-10-10T02:04:18.447Z,14.90
2022-10-10T02:06:52.720Z,14.80
2022-10-10T02:09:27.227Z,14.20
2022-10-10T02:11:56.450Z,14.30
2022-10-10T02:14:29.250Z,14.40
2022-10-10T02:17:01.180Z,14.50
2022-10-10T02:19:31.119Z,14.50
2022-10-10T02:21:59.930Z,14.50
2022-10-10T02:24:27.890Z,14.70
2022-10-10T02:27:00.860Z,15.00
2022-10-10T02:29:32.975Z,15.10
2022-10-10T02:32:06.667Z,15.00
2022-10-10T02:34:36.826Z,14.90
2022-10-10T02:37:12.408Z,14.90
2022-10-10T02:39:43.546Z,14.80
2022-10-10T02:42:13.764Z,14.90
2022-10-10T02:44:42.631Z,14.70
2022-10-10T02:47:12.069Z,14.80
2022-10-10T02:49:40.086Z,14.80
2022-10-10T02:52:08.399Z,14.70
2022-10-10T02:54:36.295Z,15.00
2022-10-10T02:57:04.161Z,15.20
2022-10-10T02:59:32.053Z,15.10
2022-10-10T03:01:59.920Z,14.90
2022-10-10T03:04:29.266Z,15.10
2022-10-10T03:06:57.173Z,15.10
2022-10-10T03:09:25.071Z,14.90
2022-10-10T03:11:52.971Z,14.90
2022-10-10T03:14:20.876Z,15.10
2022-10-10T03:16:48.715Z,15.00
2022-10-10T03:19:16.612Z,15.10
2022-10-10T03:21:45.900Z,15.10
2022-10-10T03:24:13.806Z,15.30
2022-10-10T03:26:41.719Z,15.60
2022-10-10T03:29:09.647Z,15.80
2022-10-10T03:31:37.556Z,15.70
2022-10-10T03:34:05.431Z,15.60
2022-10-10T03:36:33.325Z,15.50
2022-10-10T03:39:02.895Z,15.40
2022-10-10T03:41:30.791Z,15.40
2022-10-10T03:43:58.754Z,15.30
2022-10-10T03:46:26.711Z,15.30
2022-10-10T03:48:55.113Z,15.30
2022-10-10T03:51:23.088Z,15.40
2022-10-10T03:53:50.984Z,15.60
2022-10-10T03:56:20.252Z,15.90
2022-10-10T03:58:48.137Z,15.90
2022-10-10T04:01:16.119Z,15.90
2022-10-10T04:03:46.596Z,16.00
2022-10-10T04:06:17.971Z,16.00
2022-10-10T04:08:45.843Z,16.00
2022-10-10T04:11:13.767Z,16.00
2022-10-10T04:13:42.992Z,16.10
2022-10-10T04:16:10.892Z,16.20
2022-10-10T04:18:38.809Z,16.40
2022-10-10T04:21:07.306Z,16.50
2022-10-10T04:23:35.188Z,16.50
2022-10-10T04:26:03.064Z,16.40
2022-10-10T04:28:31.180Z,16.40
2022-10-10T04:31:00.498Z,16.40
2022-10-10T04:33:28.411Z,16.20
2022-10-10T04:35:56.285Z,16.30
2022-10-10T04:38:24.184Z,16.40
2022-10-10T04:40:52.459Z,16.20
2022-10-10T04:43:20.640Z,16.20
2022-10-10T04:45:48.746Z,16.20
2022-10-10T04:48:18.002Z,16.40
2022-10-10T04:50:45.974Z,16.40
2022-10-10T04:53:14.131Z,16.40
2022-10-10T04:55:42.015Z,16.30
2022-10-10T04:58:09.879Z,16.40
2022-10-10T05:00:39.543Z,16.50
2022-10-10T05:03:07.519Z,16.50
2022-10-10T05:05:36.784Z,16.60
2022-10-10T05:08:04.764Z,16.60
2022-10-10T05:10:36.825Z,16.40
2022-10-10T05:13:04.709Z,16.30
2022-10-10T05:15:34.673Z,16.00
2022-10-10T05:18:02.588Z,15.90
2022-10-10T05:20:31.318Z,15.80
2022-10-10T05:23:00.559Z,15.70
2022-10-10T05:25:28.788Z,15.60
2022-10-10T05:27:56.749Z,15.60
2022-10-10T05:30:24.635Z,15.90
2022-10-10T05:32:52.798Z,16.00
2022-10-10T05:35:20.872Z,16.30
2022-10-10T05:37:48.812Z,16.50
2022-10-10T05:40:18.376Z,16.40
2022-10-10T05:42:46.232Z,16.20
2022-10-10T05:45:14.117Z,16.30
2022-10-10T05:47:41.981Z,16.20
2022-10-10T05:50:24.424Z,16.20
2022-10-10T05:52:52.638Z,16.30
2022-10-10T05:55:22.229Z,16.50
2022-10-10T05:57:50.145Z,16.50
2022-10-10T06:00:18.305Z,16.50
2022-10-10T06:02:46.315Z,16.50
2022-10-10T06:05:14.229Z,16.60
2022-10-10T06:08:03.402Z,16.60
2022-10-10T06:10:31.464Z,16.60
2022-10-10T06:12:59.305Z,16.90
2022-10-10T06:15:27.251Z,16.80
2022-10-10T06:17:55.111Z,16.70
2022-10-10T06:20:23.003Z,16.70
2022-10-10T06:22:51.220Z,16.70
2022-10-10T06:25:38.837Z,16.70
2022-10-10T06:28:08.904Z,16.60
2022-10-10T06:30:41.072Z,16.60
2022-10-10T06:33:09.048Z,16.90
2022-10-10T06:35:41.610Z,17.00
2022-10-10T06:38:09.981Z,17.00
2022-10-10T06:40:37.896Z,17.00
2022-10-10T06:43:08.767Z,16.90
2022-10-10T06:45:38.756Z,16.80
2022-10-10T06:48:07.018Z,16.70
2022-10-10T06:50:35.221Z,16.70
2022-10-10T06:53:03.175Z,16.60
2022-10-10T06:55:31.186Z,16.60
2022-10-10T06:57:59.351Z,16.60
2022-10-10T07:00:27.418Z,16.50
2022-10-10T07:02:56.637Z,16.50
2022-10-10T07:05:24.551Z,16.60
2022-10-10T07:07:53.986Z,16.60
2022-10-10T07:10:22.437Z,16.70
2022-10-10T07:12:50.463Z,16.90
2022-10-10T07:15:18.367Z,17.10
2022-10-10T07:17:49.341Z,17.10
2022-10-10T07:20:22.741Z,17.30
2022-10-10T07:22:51.069Z,17.30
2022-10-10T07:25:19.168Z,17.40
2022-10-10T07:27:47.052Z,17.50
2022-10-10T07:30:15.404Z,17.60
2022-10-10T07:32:43.479Z,17.60
2022-10-10T07:35:11.906Z,17.60
2022-10-10T07:37:41.306Z,17.60
2022-10-10T07:40:10.384Z,17.60
2022-10-10T07:42:38.317Z,17.70
2022-10-10T07:45:07.540Z,17.70
2022-10-10T07:47:35.417Z,17.70
2022-10-10T07:50:03.342Z,17.70
2022-10-10T07:52:31.227Z,17.70
2022-10-10T07:55:00.501Z,17.60
2022-10-10T07:57:28.606Z,17.50
2022-10-10T07:59:56.485Z,17.40
2022-10-10T08:02:24.337Z,17.40
2022-10-10T08:04:52.199Z,17.40
2022-10-10T08:07:20.308Z,17.40
2022-10-10T08:09:48.319Z,17.60
2022-10-10T08:12:17.654Z,17.60
2022-10-10T08:14:45.794Z,17.50
2022-10-10T08:17:13.712Z,17.70
2022-10-10T08:19:41.922Z,17.80
2022-10-10T08:22:09.840Z,17.90
2022-10-10T08:24:37.708Z,18.10
2022-10-10T08:27:05.596Z,18.10
2022-10-10T08:29:35.031Z,18.10
2022-10-10T08:32:02.876Z,18.20
2022-10-10T08:34:30.770Z,18.20
2022-10-10T08:36:58.650Z,18.20
2022-10-10T08:39:26.525Z,18.30
2022-10-10T08:41:58.320Z,18.40
2022-10-10T08:44:30.279Z,18.50
2022-10-10T08:47:02.804Z,18.60
2022-10-10T08:49:35.545Z,18.70
2022-10-10T08:52:08.833Z,18.80
2022-10-10T08:54:38.807Z,18.70
2022-10-10T08:57:12.011Z,18.80
2022-10-10T08:59:41.728Z,18.90
2022-10-10T09:02:50.192Z,18.90
2022-10-10T09:05:21.757Z,19.00
2022-10-10T09:08:09.094Z,19.10
2022-10-10T09:10:45.725Z,19.10
2022-10-10T09:13:25.439Z,19.20
2022-10-10T09:15:58.708Z,19.20
2022-10-10T09:18:43.151Z,19.30
2022-10-10T09:21:17.211Z,19.30
2022-10-10T09:23:49.659Z,19.30
2022-10-10T09:26:20.979Z,19.30
2022-10-10T09:28:54.871Z,19.40
2022-10-10T09:31:27.908Z,19.30
2022-10-10T09:34:01.487Z,19.30
2022-10-10T09:36:34.102Z,19.30
2022-10-10T09:39:07.517Z,19.20
2022-10-10T09:41:40.506Z,19.40
2022-10-10T09:44:13.386Z,19.50
2022-10-10T09:46:41.878Z,19.60
2022-10-10T09:49:16.541Z,19.60
2022-10-10T09:51:44.780Z,19.50
2022-10-10T09:54:15.104Z,19.60
2022-10-10T09:56:46.185Z,19.50
2022-10-10T09:59:39.567Z,19.80
2022-10-10T10:02:15.659Z,19.90
2022-10-10T10:04:45.120Z,19.90
2022-10-10T10:07:22.708Z,19.80
2022-10-10T10:09:52.133Z,20.00
2022-10-10T10:12:23.787Z,20.00
2022-10-10T10:14:53.746Z,20.00
2022-10-10T10:17:24.220Z,20.00
2022-10-10T10:19:53.823Z,20.00
2022-10-10T10:22:34.142Z,19.90
2022-10-10T10:25:31.635Z,19.80
2022-10-10T10:28:21.789Z,19.80
2022-10-10T10:30:49.914Z,20.00
2022-10-10T10:33:28.908Z,20.20
2022-10-10T10:36:03.903Z,20.30
2022-10-10T10:38:43.376Z,20.40
2022-10-10T10:41:23.176Z,20.50
2022-10-10T10:44:07.052Z,20.50
2022-10-10T10:46:48.232Z,20.50
2022-10-10T10:49:24.801Z,20.40
2022-10-10T10:52:19.868Z,20.40
2022-10-10T10:55:04.637Z,20.40
2022-10-10T10:58:04.614Z,20.50
2022-10-10T11:01:23.752Z,20.50
2022-10-10T11:04:15.805Z,20.50
2022-10-10T11:06:53.936Z,20.50
2022-10-10T11:09:49.646Z,20.60
2022-10-10T11:12:37.199Z,20.60
2022-10-10T11:15:11.485Z,20.50
2022-10-10T11:17:42.267Z,20.40
2022-10-10T11:20:21.516Z,20.50
2022-10-10T11:22:53.741Z,20.70
2022-10-10T11:25:27.595Z,20.80
2022-10-10T11:28:00.016Z,20.90
2022-10-10T11:30:31.888Z,20.90
2022-10-10T11:33:06.639Z,20.80
2022-10-10T11:35:41.748Z,20.90
2022-10-10T11:38:21.555Z,21.00
2022-10-10T11:40:54.705Z,21.00
2022-10-10T11:43:31.461Z,21.10
2022-10-10T11:46:06.345Z,21.10
2022-10-10T11:48:42.783Z,21.10
2022-10-10T11:51:22.800Z,21.10
2022-10-10T11:53:53.032Z,21.10
2022-10-10T11:56:28.802Z,20.90
2022-10-10T11:59:02.916Z,21.00
2022-10-10T12:01:34.644Z,21.10
2022-10-10T12:04:02.476Z,21.10
2022-10-10T12:06:36.420Z,20.90
2022-10-10T12:09:09.610Z,20.80
2022-10-10T12:11:42.630Z,20.70
2022-10-10T12:14:14.754Z,20.60
2022-10-10T12:16:42.788Z,20.60
2022-10-10T12:19:19.424Z,20.60
2022-10-10T12:21:56.853Z,20.60
2022-10-10T12:24:26.062Z,20.50
2022-10-10T12:27:29.243Z,20.40
2022-10-10T12:30:29.017Z,20.40
2022-10-10T12:32:57.501Z,20.50
2022-10-10T12:35:35.320Z,20.40
2022-10-10T12:38:23.783Z,20.30
2022-10-10T12:41:15.850Z,20.30
2022-10-10T12:43:51.713Z,20.20
2022-10-10T12:46:27.330Z,20.20
2022-10-10T12:49:01.586Z,20.20
2022-10-10T12:51:31.702Z,20.30
2022-10-10T12:54:03.486Z,20.30
2022-10-10T12:56:41.631Z,20.30
2022-10-10T12:59:20.116Z,20.20
2022-10-10T13:01:52.840Z,20.20
2022-10-10T13:04:21.927Z,20.20
2022-10-10T13:06:53.375Z,20.30
2022-10-10T13:09:24.316Z,20.30
2022-10-10T13:11:55.307Z,20.40
2022-10-10T13:14:26.290Z,20.50
2022-10-10T13:16:55.067Z,20.50
2022-10-10T13:19:25.123Z,20.50
2022-10-10T13:21:56.242Z,20.50
2022-10-10T13:24:32.608Z,20.50
2022-10-10T13:27:01.948Z,20.60
2022-10-10T13:29:33.650Z,20.70
2022-10-10T13:32:05.904Z,20.80
2022-10-10T13:34:37.243Z,20.80
2022-10-10T13:37:07.118Z,20.70
2022-10-10T13:39:38.013Z,20.70
2022-10-10T13:42:07.750Z,20.80
2022-10-10T13:44:51.670Z,20.80
2022-10-10T13:47:47.614Z,20.80
2022-10-10T13:50:22.508Z,20.80
2022-10-10T13:52:50.412Z,20.90
2022-10-10T13:55:25.287Z,20.90
2022-10-10T13:57:58.257Z,20.70
2022-10-10T14:00:32.923Z,20.80
2022-10-10T14:03:01.048Z,20.90
2022-10-10T14:05:32.116Z,20.90
2022-10-10T14:08:00.707Z,21.00
2022-10-10T14:10:33.617Z,21.10
2022-10-10T14:13:02.029Z,21.10
2022-10-10T14:15:43.949Z,21.10
2022-10-10T14:18:17.611Z,21.00
2022-10-10T14:20:45.698Z,21.00
2022-10-10T14:23:14.031Z,21.00
2022-10-10T14:25:43.578Z,20.80
2022-10-10T14:28:18.023Z,20.90
2022-10-10T14:30:47.931Z,20.90
2022-10-10T14:33:17.855Z,20.90
2022-10-10T14:35:47.257Z,20.90
2022-10-10T14:38:15.893Z,20.90
2022-10-10T14:40:46.141Z,20.90
2022-10-10T14:43:14.204Z,21.00
2022-10-10T14:45:42.088Z,21.10
2022-10-10T14:48:12.671Z,21.00
2022-10-10T14:50:44.371Z,20.90
2022-10-10T14:53:12.764Z,21.00
2022-10-10T14:55:43.274Z,20.90
2022-10-10T14:58:15.515Z,20.80
2022-10-10T15:00:43.928Z,20.80
2022-10-10T15:03:13.377Z,20.80
2022-10-10T15:05:41.743Z,20.80
2022-10-10T15:08:11.283Z,20.90
2022-10-10T15:10:39.192Z,20.90
2022-10-10T15:13:07.097Z,20.90
2022-10-10T15:15:35.038Z,20.90
2022-10-10T15:18:02.904Z,20.90
2022-10-10T15:20:32.184Z,20.80
2022-10-10T15:23:00.570Z,20.70
2022-10-10T15:25:33.618Z,20.70
2022-10-10T15:28:03.365Z,20.80
2022-10-10T15:30:31.844Z,20.90
2022-10-10T15:32:59.740Z,20.90
2022-10-10T15:35:39.966Z,21.00
2022-10-10T15:38:17.731Z,21.10
2022-10-10T15:40:45.600Z,21.10
2022-10-10T15:43:15.856Z,21.00
2022-10-10T15:45:55.545Z,20.90
2022-10-10T15:48:24.194Z,20.90
2022-10-10T15:50:52.350Z,21.00
2022-10-10T15:53:21.660Z,21.00
2022-10-10T15:55:49.567Z,21.10
2022-10-10T15:58:17.505Z,21.10
2022-10-10T16:00:46.071Z,21.10
2022-10-10T16:03:14.061Z,21.20
2022-10-10T16:05:43.779Z,21.20
2022-10-10T16:08:12.393Z,21.10
2022-10-10T16:10:43.011Z,21.10
2022-10-10T16:13:11.612Z,21.00
2022-10-10T16:15:39.556Z,21.10
2022-10-10T16:18:07.495Z,21.00
2022-10-10T16:20:35.386Z,20.90
2022-10-10T16:23:03.238Z,20.80
2022-10-10T16:25:31.176Z,20.80
2022-10-10T16:28:00.374Z,20.80
2022-10-10T16:30:28.281Z,20.80
2022-10-10T16:32:56.168Z,20.80
2022-10-10T16:35:23.996Z,20.70
2022-10-10T16:37:51.973Z,20.60
2022-10-10T16:40:19.956Z,20.50
2022-10-10T16:42:47.874Z,20.30
2022-10-10T16:45:17.233Z,20.30
2022-10-10T16:47:45.095Z,20.30
2022-10-10T16:50:13.219Z,20.20
2022-10-10T16:52:41.566Z,20.20
2022-10-10T16:55:11.197Z,20.20
2022-10-10T16:57:39.443Z,20.30
2022-10-10T17:00:09.519Z,20.30
2022-10-10T17:02:42.010Z,20.40
2022-10-10T17:05:10.195Z,20.40
2022-10-10T17:07:38.072Z,20.40
2022-10-10T17:10:06.995Z,20.40
2022-10-10T17:12:34.921Z,20.30
2022-10-10T17:15:03.549Z,20.30
2022-10-10T17:17:31.619Z,20.20
2022-10-10T17:20:01.952Z,20.20
2022-10-10T17:22:30.109Z,20.30
2022-10-10T17:24:58.120Z,20.40
2022-10-10T17:27:26.161Z,20.40
2022-10-10T17:29:54.221Z,20.50
2022-10-10T17:32:22.346Z,20.50
2022-10-10T17:34:50.631Z,20.70
2022-10-10T17:37:19.850Z,20.80
2022-10-10T17:39:47.899Z,20.90
2022-10-10T17:42:15.918Z,20.40
2022-10-10T17:44:50.457Z,20.40
2022-10-10T17:47:21.765Z,20.10
2022-10-10T17:49:49.671Z,19.60
2022-10-10T17:52:21.253Z,19.20
2022-10-10T17:54:49.504Z,18.80
2022-10-10T17:57:17.854Z,18.80
2022-10-10T17:59:45.924Z,18.70
2022-10-10T18:02:16.098Z,18.50
2022-10-10T18:04:44.072Z,18.10
2022-10-10T18:07:12.809Z,18.20
2022-10-10T18:09:42.203Z,18.10
2022-10-10T18:12:10.074Z,18.10
2022-10-10T18:14:38.175Z,18.50
2022-10-10T18:17:06.055Z,18.70
2022-10-10T18:19:34.036Z,18.80
2022-10-10T18:22:01.920Z,18.80
2022-10-10T18:24:30.143Z,18.90
2022-10-10T18:26:59.520Z,18.80
2022-10-10T18:29:27.424Z,18.80
2022-10-10T18:31:56.384Z,18.60
2022-10-10T18:34:24.478Z,18.50
2022-10-10T18:36:52.397Z,18.50
2022-10-10T18:39:20.289Z,18.30
2022-10-10T18:41:48.514Z,18.10
2022-10-10T18:44:19.216Z,18.10
2022-10-10T18:46:47.238Z,18.30
2022-10-10T18:49:15.218Z,18.20
2022-10-10T18:51:44.238Z,18.40
2022-10-10T18:54:15.251Z,18.50
2022-10-10T18:56:44.094Z,18.80
2022-10-10T18:59:13.461Z,19.10
2022-10-10T19:01:45.467Z,19.20
2022-10-10T19:04:15.455Z,19.10
2022-10-10T19:06:44.514Z,19.20
2022-10-10T19:09:14.823Z,19.30
2022-10-10T19:11:44.938Z,19.20
2022-10-10T19:14:15.099Z,19.30
2022-10-10T19:16:45.476Z,19.30
2022-10-10T19:19:15.411Z,19.30
2022-10-10T19:21:44.745Z,19.30
2022-10-10T19:24:15.132Z,19.30
2022-10-10T19:26:44.642Z,19.20
2022-10-10T19:29:13.371Z,19.20
2022-10-10T19:31:41.545Z,19.20
2022-10-10T19:34:10.835Z,19.20
2022-10-10T19:36:39.967Z,19.20
2022-10-10T19:39:09.935Z,19.20
2022-10-10T19:41:37.797Z,19.20
2022-10-10T19:44:05.888Z,19.20
2022-10-10T19:46:37.166Z,19.20
2022-10-10T19:49:06.280Z,19.20
2022-10-10T19:51:35.472Z,19.30
2022-10-10T19:54:03.308Z,19.40
2022-10-10T19:56:31.455Z,19.60
2022-10-10T19:59:04.145Z,19.60
2022-10-10T20:01:32.474Z,19.60
2022-10-10T20:04:00.467Z,19.70
2022-10-10T20:06:28.659Z,19.70
2022-10-10T20:08:57.913Z,19.70
2022-10-10T20:11:26.308Z,19.60
2022-10-10T20:13:55.606Z,19.60
2022-10-10T20:16:24.968Z,19.50
2022-10-10T20:18:53.160Z,19.50
2022-10-10T20:21:23.318Z,19.40
2022-10-10T20:23:51.595Z,19.40
2022-10-10T20:26:22.639Z,19.40
2022-10-10T20:28:51.199Z,19.20
2022-10-10T20:31:21.352Z,19.10
2022-10-10T20:33:50.477Z,19.00
2022-10-10T20:36:19.232Z,19.00
2022-10-10T20:38:52.973Z,19.00
2022-10-10T20:41:22.975Z,19.00
2022-10-10T20:43:50.999Z,18.90
2022-10-10T20:46:18.858Z,18.90
2022-10-10T20:48:46.789Z,18.90
2022-10-10T20:51:15.075Z,18.90
2022-10-10T20:53:42.957Z,18.80
2022-10-10T20:56:12.873Z,18.70
2022-10-10T20:58:42.198Z,18.70
2022-10-10T21:01:12.445Z,18.80
2022-10-10T21:03:41.713Z,18.80
2022-10-10T21:06:11.855Z,18.80
2022-10-10T21:08:40.384Z,18.80
2022-10-10T21:11:10.274Z,18.80
2022-10-10T21:13:41.794Z,18.80
2022-10-10T21:16:11.166Z,18.80
2022-10-10T21:18:39.096Z,18.80
2022-10-10T21:21:08.326Z,18.90
2022-10-10T21:23:39.225Z,18.90
2022-10-10T21:26:09.373Z,18.80
2022-10-10T21:28:37.729Z,18.80
2022-10-10T21:31:07.402Z,18.60
2022-10-10T21:33:35.825Z,18.60
2022-10-10T21:36:04.154Z,18.50
2022-10-10T21:38:32.269Z,18.40
2022-10-10T21:41:05.461Z,18.40
2022-10-10T21:43:33.951Z,18.40
2022-10-10T21:46:07.540Z,18.30
2022-10-10T21:48:36.236Z,18.20
2022-10-10T21:51:04.216Z,18.20
2022-10-10T21:53:32.405Z,18.10
2022-10-10T21:56:00.525Z,18.00
2022-10-10T21:58:28.445Z,18.00
2022-10-10T22:00:56.361Z,18.10
2022-10-10T22:03:25.731Z,18.00
2022-10-10T22:05:53.602Z,18.00
2022-10-10T22:08:21.448Z,18.00
2022-10-10T22:10:49.306Z,17.90
2022-10-10T22:13:17.222Z,17.90
2022-10-10T22:15:45.326Z,17.90
2022-10-10T22:18:13.208Z,17.80
2022-10-10T22:20:42.462Z,17.80
2022-10-10T22:23:10.312Z,17.90
2022-10-10T22:25:38.244Z,17.80
2022-10-10T22:28:06.578Z,17.70
2022-10-10T22:30:34.588Z,17.60
2022-10-10T22:33:02.621Z,17.70
2022-10-10T22:35:30.488Z,17.80
2022-10-10T22:37:59.777Z,17.80
2022-10-10T22:40:27.870Z,17.70
2022-10-10T22:42:55.869Z,17.70
2022-10-10T22:45:24.232Z,17.70
2022-10-10T22:47:52.145Z,17.70
2022-10-10T22:50:20.522Z,17.70
2022-10-10T22:52:48.554Z,17.90
2022-10-10T22:55:18.868Z,18.10
2022-10-10T22:57:47.087Z,18.00
2022-10-10T23:00:16.455Z,17.90
2022-10-10T23:02:44.335Z,17.90
2022-10-10T23:05:12.212Z,17.80
2022-10-10T23:07:40.076Z,17.70
2022-10-10T23:10:09.416Z,17.70
2022-10-10T23:12:38.857Z,17.60
2022-10-10T23:15:07.589Z,17.60
2022-10-10T23:17:35.972Z,17.60
2022-10-10T23:20:04.657Z,17.60
2022-10-10T23:22:32.594Z,17.60
2022-10-10T23:25:00.459Z,17.80
2022-10-10T23:27:28.368Z,17.80
2022-10-10T23:29:57.624Z,18.00
2022-10-10T23:32:29.155Z,18.00
2022-10-10T23:34:57.431Z,18.00
2022-10-10T23:37:25.532Z,18.10
2022-10-10T23:39:53.406Z,18.00
2022-10-10T23:42:21.433Z,18.00
2022-10-10T23:44:49.266Z,18.00
2022-10-10T23:47:18.529Z,18.00
2022-10-10T23:49:46.432Z,18.00
2022-10-10T23:52:14.279Z,18.00
2022-10-10T23:54:42.942Z,18.10
2022-10-10T23:57:10.791Z,18.20
2022-10-10T23:59:38.666Z,18.20
